createdAt,value
2019-04-27T00:00:55.817Z,100710.08
2019-04-27T00:03:41.154Z,100708.67
2019-04-27T00:06:14.091Z,100705.37
2019-04-27T00:08:50.905Z,100710.22
2019-04-27T00:11:33.086Z,100725.77
2019-04-27T00:14:10.409Z,100721.58
2019-04-27T00:16:56.651Z,100719.05
2019-04-27T00:19:49.920Z,100716.25
2019-04-27T00:22:27.680Z,100707.87
2019-04-27T00:25:04.689Z,100692.48
2019-04-27T00:27:40.227Z,100696.14
2019-04-27T00:30:17.562Z,100703.48
2019-04-27T00:32:53.595Z,100704.14
2019-04-27T00:35:36.992Z,100699.14
2019-04-27T00:38:26.885Z,100698.56
2019-04-27T00:41:04.638Z,100700.26
2019-04-27T00:43:40.447Z,100692.56
2019-04-27T00:46:15.614Z,100696.17
2019-04-27T00:48:50.770Z,100698.17
2019-04-27T00:51:26.153Z,100694.94
2019-04-27T00:54:01.602Z,100693.90
2019-04-27T00:56:44.469Z,100680.44
2019-04-27T00:59:38.666Z,100681.06
2019-04-27T01:02:35.461Z,100684.17
2019-04-27T01:05:27.999Z,100683.02
2019-04-27T01:08:03.859Z,100674.56
2019-04-27T01:10:38.984Z,100676.40
2019-04-27T01:13:14.427Z,100687.55
2019-04-27T01:15:49.698Z,100692.14
2019-04-27T01:18:28.475Z,100702.71
2019-04-27T01:21:03.847Z,100700.33
2019-04-27T01:23:38.923Z,100695.48
2019-04-27T01:26:33.173Z,100709.25
2019-04-27T01:29:10.320Z,100716.77
2019-04-27T01:31:45.668Z,100732.34
2019-04-27T01:34:20.844Z,100732.81
2019-04-27T01:36:56.603Z,100736.23
2019-04-27T01:39:32.590Z,100734.77
2019-04-27T01:42:08.910Z,100745.37
2019-04-27T01:44:44.524Z,100743.65
2019-04-27T01:47:19.621Z,100745.22
2019-04-27T01:49:58.558Z,100745.11
2019-04-27T01:52:33.659Z,100759.72
2019-04-27T01:55:08.907Z,100754.42
2019-04-27T01:57:45.620Z,100750.92
2019-04-27T02:00:39.591Z,100749.11
2019-04-27T02:03:16.348Z,100751.87
2019-04-27T02:05:56.046Z,100766.03
2019-04-27T02:08:32.854Z,100785.41
2019-04-27T02:11:09.264Z,100779.37
2019-04-27T02:13:46.582Z,100778.75
2019-04-27T02:16:21.647Z,100780.02
2019-04-27T02:18:58.561Z,100777.93
2019-04-27T02:21:33.742Z,100770.78
2019-04-27T02:24:13.305Z,100764.05
2019-04-27T02:26:49.735Z,100755.89
2019-04-27T02:29:36.240Z,100757.81
2019-04-27T02:32:32.434Z,100762.70
2019-04-27T02:35:09.472Z,100762.16
2019-04-27T02:37:45.381Z,100760.66
2019-04-27T02:40:49.565Z,100760.75
2019-04-27T02:43:46.053Z,100756.16
2019-04-27T02:46:22.239Z,100757.28
2019-04-27T02:49:03.593Z,100747.41
2019-04-27T02:51:54.561Z,100749.26
2019-04-27T02:54:29.970Z,100751.22
2019-04-27T02:57:05.235Z,100754.34
2019-04-27T02:59:41.512Z,100767.00
2019-04-27T03:02:19.639Z,100763.92
2019-04-27T03:04:54.893Z,100760.45
2019-04-27T03:07:30.927Z,100762.34
2019-04-27T03:10:09.694Z,100772.95
2019-04-27T03:12:45.779Z,100769.57
2019-04-27T03:15:30.563Z,100783.57
2019-04-27T03:18:24.137Z,100791.27
2019-04-27T03:21:19.852Z,100791.72
2019-04-27T03:23:54.226Z,100802.11
2019-04-27T03:26:31.178Z,100798.56
2019-04-27T03:29:06.346Z,100792.95
2019-04-27T03:31:46.139Z,100793.91
2019-04-27T03:34:22.277Z,100794.53
2019-04-27T03:36:56.084Z,100797.45
2019-04-27T03:39:32.913Z,100806.83
2019-04-27T03:42:10.416Z,100806.02
2019-04-27T03:44:50.284Z,100808.55
2019-04-27T03:47:24.634Z,100798.75
2019-04-27T03:50:00.218Z,100796.52
2019-04-27T03:52:37.030Z,100798.28
2019-04-27T03:55:13.866Z,100790.63
2019-04-27T03:57:50.854Z,100799.89
2019-04-27T04:00:30.067Z,100793.05
2019-04-27T04:03:05.027Z,100799.55
2019-04-27T04:05:41.345Z,100801.75
2019-04-27T04:08:16.449Z,100797.09
2019-04-27T04:11:00.359Z,100782.69
2019-04-27T04:13:43.663Z,100781.34
2019-04-27T04:16:36.589Z,100774.42
2019-04-27T04:19:11.977Z,100779.27
2019-04-27T04:21:50.131Z,100786.77
2019-04-27T04:24:28.352Z,100797.77
2019-04-27T04:27:06.615Z,100800.06
2019-04-27T04:29:41.706Z,100807.83
2019-04-27T04:32:19.070Z,100799.68
2019-04-27T04:34:54.683Z,100793.42
2019-04-27T04:37:29.895Z,100796.49
2019-04-27T04:40:07.009Z,100797.53
2019-04-27T04:42:46.374Z,100796.95
2019-04-27T04:45:36.101Z,100795.22
2019-04-27T04:48:12.886Z,100799.64
2019-04-27T04:50:50.064Z,100805.80
2019-04-27T04:53:24.935Z,100807.77
2019-04-27T04:56:00.476Z,100814.25
2019-04-27T04:58:37.014Z,100806.95
2019-04-27T05:01:12.674Z,100806.41
2019-04-27T05:03:48.815Z,100811.95
2019-04-27T05:06:25.570Z,100814.38
2019-04-27T05:09:00.920Z,100809.83
2019-04-27T05:11:39.493Z,100809.09
2019-04-27T05:14:14.495Z,100811.16
2019-04-27T05:16:49.629Z,100812.70
2019-04-27T05:19:25.226Z,100817.54
2019-04-27T05:22:00.433Z,100800.50
2019-04-27T05:24:35.888Z,100805.95
2019-04-27T05:27:11.503Z,100812.02
2019-04-27T05:29:46.569Z,100814.63
2019-04-27T05:32:21.976Z,100817.73
2019-04-27T05:34:59.690Z,100815.55
2019-04-27T05:37:34.847Z,100819.47
2019-04-27T05:40:09.926Z,100822.89
2019-04-27T05:42:48.874Z,100824.09
2019-04-27T05:46:03.372Z,100823.05
2019-04-27T05:48:40.781Z,100825.55
2019-04-27T05:51:16.326Z,100824.03
2019-04-27T05:53:55.050Z,100817.91
2019-04-27T05:56:39.050Z,100823.52
2019-04-27T05:59:14.962Z,100827.11
2019-04-27T06:01:51.540Z,100823.67
2019-04-27T06:04:29.091Z,100834.28
2019-04-27T06:07:06.728Z,100824.94
2019-04-27T06:09:42.297Z,100827.41
2019-04-27T06:12:18.940Z,100830.28
2019-04-27T06:14:59.843Z,100828.17
2019-04-27T06:17:35.247Z,100832.89
2019-04-27T06:20:10.727Z,100824.27
2019-04-27T06:22:46.276Z,100828.05
2019-04-27T06:25:22.350Z,100821.42
2019-04-27T06:27:59.129Z,100822.88
2019-04-27T06:30:34.545Z,100822.49
2019-04-27T06:33:09.606Z,100824.91
2019-04-27T06:35:45.028Z,100821.35
2019-04-27T06:38:20.373Z,100818.45
2019-04-27T06:40:55.585Z,100817.97
2019-04-27T06:43:30.759Z,100823.35
2019-04-27T06:46:05.984Z,100822.57
2019-04-27T06:48:41.099Z,100831.47
2019-04-27T06:51:17.376Z,100833.67
2019-04-27T06:53:52.778Z,100833.19
2019-04-27T06:56:28.764Z,100832.80
2019-04-27T06:59:04.435Z,100831.82
2019-04-27T07:01:39.796Z,100841.38
2019-04-27T07:04:15.196Z,100838.20
2019-04-27T07:06:53.993Z,100841.59
2019-04-27T07:09:29.526Z,100829.41
2019-04-27T07:12:05.016Z,100841.48
2019-04-27T07:14:52.363Z,100852.13
2019-04-27T07:17:18.917Z,100854.24
2019-04-27T07:19:56.261Z,100854.63
2019-04-27T07:22:39.681Z,100848.88
2019-04-27T07:25:14.968Z,100844.32
2019-04-27T07:27:51.511Z,100836.11
2019-04-27T07:30:32.445Z,100837.89
2019-04-27T07:33:08.747Z,100836.64
2019-04-27T07:35:45.327Z,100834.73
2019-04-27T07:38:21.787Z,100844.00
2019-04-27T07:41:05.906Z,100840.06
2019-04-27T07:43:43.812Z,100841.72
2019-04-27T07:46:19.327Z,100842.64
2019-04-27T07:48:54.924Z,100836.95
2019-04-27T07:51:34.179Z,100841.28
2019-04-27T07:54:11.855Z,100844.78
2019-04-27T07:56:50.037Z,100840.25
2019-04-27T07:59:34.844Z,100833.55
2019-04-27T08:02:11.207Z,100834.77
2019-04-27T08:04:48.462Z,100827.78
2019-04-27T08:07:25.987Z,100826.95
2019-04-27T08:10:02.859Z,100830.88
2019-04-27T08:12:38.961Z,100831.77
2019-04-27T08:15:14.244Z,100833.50
2019-04-27T08:17:49.917Z,100832.47
2019-04-27T08:20:25.154Z,100829.75
2019-04-27T08:23:01.356Z,100832.63
2019-04-27T08:25:39.233Z,100837.33
2019-04-27T08:28:35.357Z,100834.27
2019-04-27T08:31:15.405Z,100825.10
2019-04-27T08:33:51.998Z,100827.28
2019-04-27T08:36:28.798Z,100814.52
2019-04-27T08:39:08.911Z,100812.98
2019-04-27T08:41:44.773Z,100816.09
2019-04-27T08:44:20.237Z,100808.77
2019-04-27T08:46:55.394Z,100810.06
2019-04-27T08:49:31.437Z,100812.34
2019-04-27T08:52:06.594Z,100811.26
2019-04-27T08:54:42.600Z,100807.31
2019-04-27T08:57:18.839Z,100803.00
2019-04-27T08:59:55.100Z,100802.87
2019-04-27T09:02:41.515Z,100792.78
2019-04-27T09:05:09.403Z,100801.79
2019-04-27T09:07:49.806Z,100803.58
2019-04-27T09:10:28.903Z,100810.30
2019-04-27T09:13:06.301Z,100805.95
2019-04-27T09:15:43.149Z,100792.33
2019-04-27T09:18:19.992Z,100796.98
2019-04-27T09:21:04.474Z,100795.40
2019-04-27T09:23:40.615Z,100787.34
2019-04-27T09:26:18.600Z,100787.34
2019-04-27T09:28:56.531Z,100789.27
2019-04-27T09:31:34.310Z,100790.66
2019-04-27T09:34:10.587Z,100792.03
2019-04-27T09:36:46.628Z,100792.37
2019-04-27T09:39:23.114Z,100797.03
2019-04-27T09:42:00.102Z,100799.50
2019-04-27T09:44:37.076Z,100805.40
2019-04-27T09:47:12.410Z,100806.52
2019-04-27T09:49:47.574Z,100799.81
2019-04-27T09:52:26.193Z,100801.61
2019-04-27T09:55:06.702Z,100806.39
2019-04-27T09:57:42.920Z,100801.12
2019-04-27T10:00:18.795Z,100804.55
2019-04-27T10:02:59.475Z,100802.84
2019-04-27T10:05:38.515Z,100801.37
2019-04-27T10:08:13.745Z,100799.17
2019-04-27T10:10:49.900Z,100790.28
2019-04-27T10:13:25.698Z,100793.64
2019-04-27T10:16:03.795Z,100788.61
2019-04-27T10:18:45.864Z,100782.52
2019-04-27T10:21:21.097Z,100786.42
2019-04-27T10:23:56.760Z,100779.80
2019-04-27T10:26:33.958Z,100781.17
2019-04-27T10:29:10.526Z,100785.87
2019-04-27T10:31:46.083Z,100773.16
2019-04-27T10:34:24.072Z,100772.79
2019-04-27T10:37:00.660Z,100769.56
2019-04-27T10:39:36.314Z,100779.80
2019-04-27T10:42:12.435Z,100775.70
2019-04-27T10:44:52.958Z,100776.28
2019-04-27T10:47:30.417Z,100781.34
2019-04-27T10:50:07.548Z,100777.46
2019-04-27T10:52:52.775Z,100776.02
2019-04-27T10:55:21.213Z,100771.44
2019-04-27T10:57:57.376Z,100764.85
2019-04-27T11:00:36.728Z,100769.30
2019-04-27T11:03:16.528Z,100773.06
2019-04-27T11:05:53.643Z,100768.03
2019-04-27T11:08:28.764Z,100764.31
2019-04-27T11:11:03.924Z,100774.05
2019-04-27T11:13:41.657Z,100772.53
2019-04-27T11:16:16.818Z,100769.66
2019-04-27T11:18:52.959Z,100758.80
2019-04-27T11:21:28.084Z,100758.25
2019-04-27T11:24:10.189Z,100757.94
2019-04-27T11:26:46.647Z,100757.39
2019-04-27T11:29:23.479Z,100747.83
2019-04-27T11:32:00.145Z,100749.70
2019-04-27T11:34:55.857Z,100743.84
2019-04-27T11:37:32.891Z,100747.40
2019-04-27T11:40:13.884Z,100748.83
2019-04-27T11:42:50.167Z,100742.28
2019-04-27T11:45:28.516Z,100731.05
2019-04-27T11:48:05.761Z,100747.52
2019-04-27T11:50:45.716Z,100742.97
2019-04-27T11:53:23.190Z,100746.17
2019-04-27T11:55:58.643Z,100747.17
2019-04-27T11:58:35.838Z,100740.66
2019-04-27T12:01:13.258Z,100739.39
2019-04-27T12:03:55.650Z,100728.07
2019-04-27T12:06:31.845Z,100719.55
2019-04-27T12:09:12.811Z,100714.50
2019-04-27T12:11:48.268Z,100712.45
2019-04-27T12:14:23.617Z,100715.94
2019-04-27T12:16:59.457Z,100708.55
2019-04-27T12:19:51.786Z,100706.78
2019-04-27T12:22:47.758Z,100709.34
2019-04-27T12:25:25.360Z,100704.64
2019-04-27T12:28:16.594Z,100696.20
2019-04-27T12:31:04.814Z,100693.24
2019-04-27T12:33:42.974Z,100688.09
2019-04-27T12:36:25.808Z,100688.56
2019-04-27T12:39:06.935Z,100686.70
2019-04-27T12:41:48.480Z,100691.11
2019-04-27T12:44:26.604Z,100688.27
2019-04-27T12:47:02.634Z,100683.63
2019-04-27T12:49:52.950Z,100688.87
2019-04-27T12:52:29.062Z,100690.67
2019-04-27T12:55:26.320Z,100683.77
2019-04-27T12:58:17.568Z,100677.91
2019-04-27T13:00:56.493Z,100679.73
2019-04-27T13:03:33.486Z,100684.23
2019-04-27T13:06:11.616Z,100666.61
2019-04-27T13:09:41.601Z,100662.91
2019-04-27T13:11:27.658Z,100666.50
2019-04-27T13:14:02.858Z,100666.94
2019-04-27T13:16:38.248Z,100667.02
2019-04-27T13:19:13.542Z,100672.67
2019-04-27T13:21:48.749Z,100671.76
2019-04-27T13:24:23.938Z,100673.88
2019-04-27T13:26:59.157Z,100675.32
2019-04-27T13:29:35.753Z,100678.23
2019-04-27T13:32:12.139Z,100674.87
2019-04-27T13:34:48.995Z,100669.94
2019-04-27T13:37:39.317Z,100668.63
2019-04-27T13:40:17.048Z,100669.75
2019-04-27T13:43:07.959Z,100670.34
2019-04-27T13:45:51.715Z,100665.48
2019-04-27T13:48:47.003Z,100669.88
2019-04-27T13:51:37.822Z,100671.02
2019-04-27T13:54:23.745Z,100672.31
2019-04-27T13:56:56.289Z,100672.29
2019-04-27T13:59:34.934Z,100675.81
2019-04-27T14:02:11.423Z,100677.20
2019-04-27T14:04:53.304Z,100674.11
2019-04-27T14:07:29.773Z,100672.97
2019-04-27T14:10:09.319Z,100670.76
2019-04-27T14:12:44.832Z,100681.53
2019-04-27T14:15:19.918Z,100664.48
2019-04-27T14:17:56.058Z,100661.52
2019-04-27T14:20:31.302Z,100669.62
2019-04-27T14:23:11.611Z,100661.75
2019-04-27T14:25:50.180Z,100659.77
2019-04-27T14:28:26.309Z,100652.20
2019-04-27T14:31:01.381Z,100655.81
2019-04-27T14:33:39.562Z,100655.55
2019-04-27T14:36:15.140Z,100651.22
2019-04-27T14:38:50.717Z,100657.37
2019-04-27T14:41:25.785Z,100650.15
2019-04-27T14:44:08.077Z,100641.52
2019-04-27T14:46:39.723Z,100645.52
2019-04-27T14:49:14.965Z,100658.94
2019-04-27T14:51:51.484Z,100656.61
2019-04-27T14:54:30.182Z,100657.04
2019-04-27T14:57:09.139Z,100660.33
2019-04-27T14:59:51.283Z,100655.79
2019-04-27T15:02:27.697Z,100651.77
2019-04-27T15:05:03.239Z,100652.86
2019-04-27T15:07:39.658Z,100637.70
2019-04-27T15:10:16.472Z,100640.28
2019-04-27T15:12:55.368Z,100642.98
2019-04-27T15:15:32.501Z,100630.73
2019-04-27T15:18:13.471Z,100634.08
2019-04-27T15:20:51.705Z,100621.70
2019-04-27T15:23:31.832Z,100627.64
2019-04-27T15:26:10.389Z,100626.74
2019-04-27T15:28:49.532Z,100621.69
2019-04-27T15:31:30.634Z,100625.96
2019-04-27T15:34:11.479Z,100623.09
2019-04-27T15:36:52.900Z,100627.70
2019-04-27T15:39:48.519Z,100629.03
2019-04-27T15:42:41.652Z,100625.20
2019-04-27T15:45:15.969Z,100625.59
2019-04-27T15:47:54.610Z,100629.02
2019-04-27T15:50:31.958Z,100632.38
2019-04-27T15:53:09.862Z,100628.34
2019-04-27T15:55:42.923Z,100616.94
2019-04-27T15:58:24.798Z,100618.92
2019-04-27T16:01:00.147Z,100612.64
2019-04-27T16:03:35.140Z,100608.98
2019-04-27T16:06:19.072Z,100614.31
2019-04-27T16:08:55.277Z,100617.38
2019-04-27T16:11:38.432Z,100615.03
2019-04-27T16:14:15.993Z,100612.11
2019-04-27T16:16:51.847Z,100613.80
2019-04-27T16:19:28.770Z,100611.73
2019-04-27T16:22:04.257Z,100608.66
2019-04-27T16:24:39.499Z,100614.11
2019-04-27T16:27:14.665Z,100611.54
2019-04-27T16:29:50.926Z,100614.14
2019-04-27T16:32:27.834Z,100611.42
2019-04-27T16:35:03.020Z,100609.41
2019-04-27T16:38:00.003Z,100607.92
2019-04-27T16:40:35.260Z,100607.01
2019-04-27T16:43:10.668Z,100614.73
2019-04-27T16:45:59.723Z,100616.69
2019-04-27T16:48:34.642Z,100613.47
2019-04-27T16:51:10.678Z,100609.16
2019-04-27T16:53:46.132Z,100620.49
2019-04-27T16:56:24.588Z,100631.05
2019-04-27T16:59:26.752Z,100627.99
2019-04-27T17:01:50.299Z,100632.08
2019-04-27T17:04:25.567Z,100638.03
2019-04-27T17:07:02.683Z,100632.30
2019-04-27T17:09:42.134Z,100634.61
2019-04-27T17:12:18.045Z,100630.42
2019-04-27T17:15:10.621Z,100637.13
2019-04-27T17:18:05.953Z,100637.80
2019-04-27T17:23:40.175Z,100637.08
2019-04-27T17:26:21.692Z,100639.22
2019-04-27T17:29:10.946Z,100638.98
2019-04-27T17:31:44.905Z,100640.16
2019-04-27T17:34:25.262Z,100631.17
2019-04-27T17:36:59.106Z,100635.09
2019-04-27T17:39:34.415Z,100632.19
2019-04-27T17:42:09.635Z,100631.19
2019-04-27T17:44:45.731Z,100633.80
2019-04-27T17:47:26.430Z,100632.61
2019-04-27T17:50:09.308Z,100629.66
2019-04-27T17:52:48.514Z,100629.30
2019-04-27T17:55:25.334Z,100631.02
2019-04-27T17:58:05.481Z,100634.63
2019-04-27T18:00:44.710Z,100636.14
2019-04-27T18:03:21.174Z,100638.62
2019-04-27T18:05:58.141Z,100633.42
2019-04-27T18:08:33.754Z,100623.30
2019-04-27T18:11:09.847Z,100630.85
2019-04-27T18:13:51.404Z,100629.73
2019-04-27T18:16:33.929Z,100630.13
2019-04-27T18:19:18.296Z,100637.07
2019-04-27T18:22:00.886Z,100637.55
2019-04-27T18:24:48.179Z,100630.91
2019-04-27T18:27:25.241Z,100632.14
2019-04-27T18:30:19.093Z,100635.72
2019-04-27T18:32:59.362Z,100634.34
2019-04-27T18:35:34.218Z,100633.09
2019-04-27T18:38:10.202Z,100638.39
2019-04-27T18:40:48.830Z,100637.30
2019-04-27T18:43:38.429Z,100640.63
2019-04-27T18:46:19.041Z,100645.68
2019-04-27T18:48:54.196Z,100652.10
2019-04-27T18:51:38.313Z,100649.24
2019-04-27T18:54:18.403Z,100653.78
2019-04-27T18:57:02.183Z,100657.83
2019-04-27T18:59:30.626Z,100657.77
2019-04-27T19:02:09.425Z,100655.39
2019-04-27T19:04:44.940Z,100669.39
2019-04-27T19:07:21.652Z,100672.06
2019-04-27T19:09:58.827Z,100671.18
2019-04-27T19:12:35.556Z,100677.81
2019-04-27T19:15:12.140Z,100680.78
2019-04-27T19:17:48.944Z,100680.78
2019-04-27T19:20:28.651Z,100692.51
2019-04-27T19:23:06.205Z,100695.06
2019-04-27T19:25:48.605Z,100696.89
2019-04-27T19:28:39.586Z,100705.23
2019-04-27T19:31:16.354Z,100711.48
2019-04-27T19:33:51.725Z,100711.80
2019-04-27T19:36:27.944Z,100714.19
2019-04-27T19:39:08.761Z,100708.12
2019-04-27T19:41:59.473Z,100713.32
2019-04-27T19:44:25.326Z,100715.23
2019-04-27T19:47:00.719Z,100721.81
2019-04-27T19:49:46.125Z,100725.34
2019-04-27T19:52:22.756Z,100725.55
2019-04-27T19:55:00.403Z,100729.44
2019-04-27T19:57:40.331Z,100728.43
2019-04-27T20:00:31.745Z,100736.08
2019-04-27T20:03:08.763Z,100733.44
2019-04-27T20:05:45.241Z,100732.90
2019-04-27T20:08:25.809Z,100742.40
2019-04-27T20:11:03.600Z,100741.68
2019-04-27T20:13:38.910Z,100747.33
2019-04-27T20:16:21.111Z,100755.64
2019-04-27T20:18:56.269Z,100757.05
2019-04-27T20:21:32.894Z,100761.03
2019-04-27T20:24:14.961Z,100760.38
2019-04-27T20:26:52.810Z,100757.87
2019-04-27T20:29:28.139Z,100759.83
2019-04-27T20:32:04.163Z,100764.08
2019-04-27T20:34:41.138Z,100762.07
2019-04-27T20:37:21.053Z,100763.24
2019-04-27T20:39:58.178Z,100760.77
2019-04-27T20:42:35.003Z,100761.94
2019-04-27T20:45:11.955Z,100761.00
2019-04-27T20:47:47.564Z,100767.58
2019-04-27T20:50:22.671Z,100768.56
2019-04-27T20:52:58.751Z,100767.91
2019-04-27T20:55:34.197Z,100766.65
2019-04-27T20:58:11.202Z,100773.91
2019-04-27T21:00:46.732Z,100777.93
2019-04-27T21:03:32.497Z,100781.14
2019-04-27T21:06:11.067Z,100778.44
2019-04-27T21:08:47.240Z,100780.58
2019-04-27T21:11:23.691Z,100785.98
2019-04-27T21:14:01.052Z,100786.07
2019-04-27T21:16:38.435Z,100787.61
2019-04-27T21:19:15.103Z,100787.23
2019-04-27T21:21:51.577Z,100786.00
2019-04-27T21:24:27.047Z,100792.09
2019-04-27T21:27:02.797Z,100794.01
2019-04-27T21:29:42.084Z,100787.09
2019-04-27T21:32:18.116Z,100786.88
2019-04-27T21:34:54.927Z,100787.66
2019-04-27T21:37:30.660Z,100785.72
2019-04-27T21:40:14.493Z,100788.23
2019-04-27T21:42:51.191Z,100779.64
2019-04-27T21:45:26.722Z,100794.05
2019-04-27T21:48:02.247Z,100795.19
2019-04-27T21:50:37.575Z,100795.88
2019-04-27T21:53:26.974Z,100801.17
2019-04-27T21:56:04.556Z,100807.16
2019-04-27T21:58:41.810Z,100810.17
2019-04-27T22:01:24.749Z,100808.31
2019-04-27T22:04:01.053Z,100820.97
2019-04-27T22:06:37.518Z,100826.08
2019-04-27T22:09:13.555Z,100821.42
2019-04-27T22:11:51.080Z,100824.03
2019-04-27T22:14:28.624Z,100824.53
2019-04-27T22:17:03.823Z,100827.70
2019-04-27T22:19:43.759Z,100827.50
2019-04-27T22:22:23.115Z,100826.16
2019-04-27T22:25:01.307Z,100825.18
2019-04-27T22:27:36.665Z,100822.78
2019-04-27T22:30:11.840Z,100822.98
2019-04-27T22:32:48.026Z,100818.27
2019-04-27T22:35:23.129Z,100818.82
2019-04-27T22:37:58.678Z,100820.64
2019-04-27T22:40:53.542Z,100816.39
2019-04-27T22:43:36.459Z,100822.38
2019-04-27T22:46:13.245Z,100815.81
2019-04-27T22:48:49.340Z,100823.91
2019-04-27T22:51:24.470Z,100822.44
2019-04-27T22:54:01.244Z,100824.94
2019-04-27T22:56:36.853Z,100819.16
2019-04-27T22:59:21.469Z,100816.16
2019-04-27T23:02:14.544Z,100815.28
2019-04-27T23:05:01.953Z,100823.28
2019-04-27T23:07:38.036Z,100820.97
2019-04-27T23:10:13.737Z,100819.83
2019-04-27T23:12:50.958Z,100814.22
2019-04-27T23:15:28.247Z,100813.30
2019-04-27T23:18:03.489Z,100813.00
2019-04-27T23:20:40.782Z,100813.09
2019-04-27T23:23:15.828Z,100819.16
2019-04-27T23:25:51.389Z,100818.98
2019-04-27T23:28:31.313Z,100819.75
2019-04-27T23:31:12.708Z,100819.66
2019-04-27T23:33:49.438Z,100818.98
2019-04-27T23:36:24.531Z,100818.52
2019-04-27T23:39:01.085Z,100815.14
2019-04-27T23:41:38.107Z,100815.52
2019-04-27T23:44:13.276Z,100818.69
2019-04-27T23:46:48.375Z,100820.03
2019-04-27T23:49:23.856Z,100821.30
2019-04-27T23:52:10.576Z,100826.14
2019-04-27T23:54:45.718Z,100821.80
2019-04-27T23:57:21.772Z,100818.98
2019-04-27T23:59:57.419Z,100821.09
